createdAt,value
2019-02-06T00:01:01.823Z,80.33
2019-02-06T00:03:38.074Z,85.93
2019-02-06T00:06:14.677Z,78.87
2019-02-06T00:08:52.982Z,84.37
2019-02-06T00:11:28.983Z,82.40
2019-02-06T00:14:04.908Z,86.23
2019-02-06T00:16:40.579Z,86.23
2019-02-06T00:19:16.293Z,81.97
2019-02-06T00:21:53.218Z,82.87
2019-02-06T00:24:28.986Z,85.20
2019-02-06T00:27:08.819Z,80.67
2019-02-06T00:29:43.721Z,79.53
2019-02-06T00:32:18.507Z,78.00
2019-02-06T00:34:54.709Z,88.60
2019-02-06T00:37:31.155Z,80.30
2019-02-06T00:40:08.248Z,84.23
2019-02-06T00:42:46.232Z,83.90
2019-02-06T00:45:22.627Z,84.33
2019-02-06T00:47:57.499Z,85.53
2019-02-06T00:50:33.549Z,76.50
2019-02-06T00:53:09.678Z,74.73
2019-02-06T00:55:45.928Z,76.43
2019-02-06T00:58:22.669Z,82.30
2019-02-06T01:00:59.532Z,79.87
2019-02-06T01:03:34.876Z,80.53
2019-02-06T01:06:11.022Z,78.07
2019-02-06T01:08:46.331Z,86.40
2019-02-06T01:11:22.646Z,81.97
2019-02-06T01:13:59.220Z,78.40
2019-02-06T01:16:36.308Z,81.70
2019-02-06T01:19:12.400Z,82.20
2019-02-06T01:21:47.710Z,83.50
2019-02-06T01:24:24.550Z,79.13
2019-02-06T01:27:01.377Z,66.70
2019-02-06T01:29:39.083Z,66.53
2019-02-06T01:32:15.485Z,61.60
2019-02-06T01:34:51.514Z,65.90
2019-02-06T01:37:27.562Z,62.77
2019-02-06T01:40:04.237Z,69.90
2019-02-06T01:42:40.617Z,71.13
2019-02-06T01:45:18.774Z,58.17
2019-02-06T01:47:55.177Z,58.20
2019-02-06T01:50:32.103Z,57.23
2019-02-06T01:53:08.802Z,58.00
2019-02-06T01:55:42.733Z,54.23
2019-02-06T01:58:18.431Z,54.77
2019-02-06T02:00:55.393Z,54.67
2019-02-06T02:03:31.269Z,48.10
2019-02-06T02:06:08.578Z,56.30
2019-02-06T02:08:49.720Z,50.47
2019-02-06T02:11:26.167Z,52.40
2019-02-06T02:14:02.412Z,45.17
2019-02-06T02:16:38.663Z,49.63
2019-02-06T02:19:15.998Z,47.60
2019-02-06T02:21:50.806Z,46.87
2019-02-06T02:24:27.319Z,40.43
2019-02-06T02:27:03.835Z,43.47
2019-02-06T02:29:39.919Z,40.03
2019-02-06T02:32:16.703Z,42.83
2019-02-06T02:34:52.788Z,35.17
2019-02-06T02:37:28.563Z,40.00
2019-02-06T02:40:04.964Z,36.67
2019-02-06T02:42:40.339Z,34.77
2019-02-06T02:45:18.287Z,36.33
2019-02-06T02:47:55.460Z,34.70
2019-02-06T02:50:31.823Z,35.00
2019-02-06T02:53:08.814Z,34.47
2019-02-06T02:55:44.553Z,40.93
2019-02-06T02:58:20.625Z,29.33
2019-02-06T03:01:14.434Z,34.83
2019-02-06T03:04:09.521Z,27.63
2019-02-06T03:06:46.591Z,28.33
2019-02-06T03:09:22.525Z,23.10
2019-02-06T03:12:00.944Z,28.30
2019-02-06T03:14:37.437Z,28.50
2019-02-06T03:17:14.457Z,28.53
2019-02-06T03:19:54.820Z,25.13
2019-02-06T03:22:34.217Z,26.67
2019-02-06T03:25:12.554Z,25.50
2019-02-06T03:27:48.665Z,26.27
2019-02-06T03:30:25.926Z,26.53
2019-02-06T03:33:01.298Z,24.90
2019-02-06T03:35:38.779Z,26.77
2019-02-06T03:38:15.901Z,24.27
2019-02-06T03:40:52.490Z,20.67
2019-02-06T03:43:29.184Z,21.33
2019-02-06T03:46:04.289Z,25.63
2019-02-06T03:48:41.140Z,22.70
2019-02-06T03:51:15.954Z,20.07
2019-02-06T03:53:51.326Z,18.13
2019-02-06T03:56:28.294Z,18.83
2019-02-06T03:59:03.861Z,20.13
2019-02-06T04:01:40.225Z,16.53
2019-02-06T04:04:17.266Z,16.13
2019-02-06T04:07:00.158Z,20.07
2019-02-06T04:09:30.410Z,18.37
2019-02-06T04:12:06.400Z,16.67
2019-02-06T04:14:42.593Z,15.40
2019-02-06T04:17:20.559Z,16.20
2019-02-06T04:19:57.024Z,17.03
2019-02-06T04:22:34.320Z,15.67
2019-02-06T04:25:10.085Z,12.47
2019-02-06T04:27:46.469Z,20.57
2019-02-06T04:30:22.678Z,14.60
2019-02-06T04:32:58.558Z,15.90
2019-02-06T04:35:34.341Z,20.30
2019-02-06T04:38:11.308Z,17.83
2019-02-06T04:40:47.844Z,17.73
2019-02-06T04:43:25.309Z,14.57
2019-02-06T04:46:02.189Z,14.20
2019-02-06T04:48:39.010Z,18.83
2019-02-06T04:51:15.744Z,18.47
2019-02-06T04:53:51.950Z,16.60
2019-02-06T04:56:27.668Z,16.33
2019-02-06T04:59:03.849Z,14.77
2019-02-06T05:01:39.465Z,19.57
2019-02-06T05:04:15.524Z,16.17
2019-02-06T05:06:51.910Z,16.57
2019-02-06T05:09:29.266Z,15.63
2019-02-06T05:12:09.291Z,18.67
2019-02-06T05:14:43.447Z,17.60
2019-02-06T05:17:20.350Z,17.53
2019-02-06T05:19:56.770Z,14.53
2019-02-06T05:22:34.636Z,17.80
2019-02-06T05:25:10.730Z,14.23
2019-02-06T05:27:47.441Z,13.47
2019-02-06T05:30:24.243Z,14.07
2019-02-06T05:33:01.517Z,16.90
2019-02-06T05:35:36.457Z,13.23
2019-02-06T05:38:13.057Z,16.60
2019-02-06T05:40:49.015Z,16.33
2019-02-06T05:43:26.824Z,14.03
2019-02-06T05:46:02.595Z,16.03
2019-02-06T05:48:38.870Z,17.63
2019-02-06T05:51:16.245Z,17.20
2019-02-06T05:53:52.409Z,22.30
2019-02-06T05:56:28.877Z,18.20
2019-02-06T05:59:07.076Z,20.75
2019-02-06T06:01:42.241Z,16.00
2019-02-06T06:04:19.050Z,16.53
2019-02-06T06:06:55.109Z,15.10
2019-02-06T06:09:31.968Z,14.07
2019-02-06T06:12:07.846Z,14.67
2019-02-06T06:14:43.469Z,18.80
2019-02-06T06:17:19.599Z,17.87
2019-02-06T06:19:55.841Z,17.50
2019-02-06T06:22:32.053Z,18.63
2019-02-06T06:25:09.079Z,16.77
2019-02-06T06:27:45.530Z,22.63
2019-02-06T06:30:22.556Z,20.47
2019-02-06T06:32:59.456Z,20.60
2019-02-06T06:35:35.431Z,24.50
2019-02-06T06:38:12.670Z,24.60
2019-02-06T06:40:50.752Z,22.50
2019-02-06T06:43:37.441Z,23.97
2019-02-06T06:46:14.107Z,24.40
2019-02-06T06:48:51.897Z,21.77
2019-02-06T06:51:30.368Z,20.63
2019-02-06T06:54:06.450Z,24.63
2019-02-06T06:56:42.430Z,20.90
2019-02-06T06:59:20.411Z,21.43
2019-02-06T07:01:56.986Z,19.13
2019-02-06T07:04:34.423Z,23.30
2019-02-06T07:07:10.630Z,25.30
2019-02-06T07:09:46.987Z,20.93
2019-02-06T07:12:22.266Z,22.17
2019-02-06T07:14:59.686Z,20.83
2019-02-06T07:17:36.417Z,23.20
2019-02-06T07:20:15.257Z,20.73
2019-02-06T07:22:55.181Z,19.50
2019-02-06T07:25:31.938Z,19.63
2019-02-06T07:28:08.505Z,19.67
2019-02-06T07:30:46.168Z,17.87
2019-02-06T07:33:22.942Z,26.70
2019-02-06T07:35:58.982Z,21.90
2019-02-06T07:38:35.612Z,19.83
2019-02-06T07:41:11.162Z,21.83
2019-02-06T07:43:49.101Z,18.70
2019-02-06T07:46:25.695Z,21.27
2019-02-06T07:49:07.732Z,18.53
2019-02-06T07:51:43.767Z,18.80
2019-02-06T07:54:21.371Z,19.17
2019-02-06T07:57:02.396Z,16.20
2019-02-06T07:59:39.785Z,19.63
2019-02-06T08:02:25.295Z,22.97
2019-02-06T08:05:05.660Z,20.00
2019-02-06T08:07:44.502Z,26.20
2019-02-06T08:10:27.162Z,21.70
2019-02-06T08:13:05.691Z,24.30
2019-02-06T08:15:44.297Z,18.73
2019-02-06T08:18:21.483Z,20.23
2019-02-06T08:21:01.784Z,19.00
2019-02-06T08:23:38.567Z,16.10
2019-02-06T08:26:16.259Z,21.70
2019-02-06T08:28:53.022Z,14.97
2019-02-06T08:31:32.012Z,12.57
2019-02-06T08:34:08.116Z,16.27
2019-02-06T08:36:54.926Z,12.63
2019-02-06T08:39:58.780Z,10.97
2019-02-06T08:42:36.747Z,13.67
2019-02-06T08:45:13.227Z,13.93
2019-02-06T08:47:50.643Z,12.87
2019-02-06T08:50:28.407Z,12.07
2019-02-06T08:57:16.675Z,12.93
2019-02-06T08:59:54.173Z,10.67
2019-02-06T09:02:30.743Z,9.40
2019-02-06T09:05:10.550Z,13.03
2019-02-06T09:07:46.522Z,13.77
2019-02-06T09:10:23.782Z,14.37
2019-02-06T09:13:01.623Z,12.03
2019-02-06T09:15:39.311Z,16.07
2019-02-06T09:18:14.702Z,10.37
2019-02-06T09:20:56.432Z,11.13
2019-02-06T09:23:33.693Z,8.47
2019-02-06T09:26:11.034Z,7.90
2019-02-06T09:28:46.886Z,10.43
2019-02-06T09:31:24.151Z,8.67
2019-02-06T09:34:01.524Z,10.27
2019-02-06T09:36:37.618Z,12.70
2019-02-06T09:39:17.153Z,13.93
2019-02-06T09:41:54.783Z,11.90
2019-02-06T09:44:35.932Z,12.03
2019-02-06T09:47:10.881Z,15.70
2019-02-06T09:49:49.873Z,10.83
2019-02-06T09:52:28.974Z,15.70
2019-02-06T09:55:06.802Z,12.03
2019-02-06T09:57:45.916Z,12.63
2019-02-06T10:00:30.487Z,16.33
2019-02-06T10:03:07.374Z,11.50
2019-02-06T10:05:49.082Z,13.60
2019-02-06T10:12:20.978Z,12.07
2019-02-06T10:14:51.747Z,12.97
2019-02-06T10:17:22.487Z,13.67
2019-02-06T10:19:53.077Z,13.50
2019-02-06T10:22:24.026Z,16.80
2019-02-06T10:24:55.159Z,15.03
2019-02-06T10:27:25.653Z,12.77
2019-02-06T10:29:56.591Z,15.03
2019-02-06T10:32:30.432Z,15.83
2019-02-06T10:35:04.228Z,15.40
2019-02-06T10:37:35.543Z,16.33
2019-02-06T10:40:08.014Z,16.73
2019-02-06T10:42:39.098Z,15.57
2019-02-06T10:45:13.624Z,14.43
2019-02-06T10:47:45.778Z,16.93
2019-02-06T10:50:20.302Z,14.20
2019-02-06T10:52:51.703Z,11.10
2019-02-06T10:55:22.414Z,15.20
2019-02-06T10:57:56.432Z,14.80
2019-02-06T11:00:30.744Z,14.10
2019-02-06T11:03:01.744Z,12.70
2019-02-06T11:05:32.586Z,12.50
2019-02-06T11:08:03.258Z,12.07
2019-02-06T11:10:34.029Z,14.10
2019-02-06T11:13:05.590Z,10.80
2019-02-06T11:15:36.643Z,14.83
2019-02-06T11:18:20.658Z,18.50
2019-02-06T11:20:52.789Z,16.07
2019-02-06T11:23:23.347Z,15.17
2019-02-06T11:26:19.626Z,15.43
2019-02-06T11:28:54.011Z,14.77
2019-02-06T11:31:27.217Z,15.33
2019-02-06T11:33:58.808Z,13.90
2019-02-06T11:36:32.119Z,16.90
2019-02-06T11:39:04.569Z,14.67
2019-02-06T11:41:52.171Z,15.80
2019-02-06T11:44:24.445Z,17.73
2019-02-06T11:46:58.128Z,15.70
2019-02-06T11:49:35.767Z,12.60
2019-02-06T11:52:17.593Z,14.07
2019-02-06T11:54:48.249Z,15.73
2019-02-06T11:57:18.976Z,20.73
2019-02-06T11:59:49.524Z,12.60
2019-02-06T12:02:22.619Z,11.73
2019-02-06T12:04:53.824Z,12.23
2019-02-06T12:07:25.219Z,14.07
2019-02-06T12:09:56.662Z,11.37
2019-02-06T12:12:27.466Z,15.70
2019-02-06T12:15:01.465Z,13.63
2019-02-06T12:17:30.723Z,16.03
2019-02-06T12:20:01.943Z,13.43
2019-02-06T12:22:33.541Z,12.33
2019-02-06T12:25:04.197Z,14.53
2019-02-06T12:27:35.309Z,11.60
2019-02-06T12:30:31.555Z,9.53
2019-02-06T12:33:02.213Z,7.90
2019-02-06T12:35:32.669Z,10.07
2019-02-06T12:38:03.603Z,12.50
2019-02-06T12:40:34.740Z,12.63
2019-02-06T12:43:10.600Z,12.57
2019-02-06T12:45:40.820Z,13.57
2019-02-06T12:48:12.057Z,9.17
2019-02-06T12:50:42.908Z,10.80
2019-02-06T12:53:13.984Z,12.13
2019-02-06T12:55:49.671Z,11.10
2019-02-06T12:58:26.307Z,11.07
2019-02-06T13:00:57.232Z,11.00
2019-02-06T13:03:28.043Z,11.13
2019-02-06T13:05:58.729Z,9.73
2019-02-06T13:08:29.573Z,11.80
2019-02-06T13:11:02.754Z,8.73
2019-02-06T13:13:34.537Z,9.37
2019-02-06T13:16:05.450Z,10.97
2019-02-06T13:18:36.755Z,12.07
2019-02-06T13:21:07.692Z,8.40
2019-02-06T13:23:38.928Z,10.63
2019-02-06T13:26:11.972Z,9.13
2019-02-06T13:28:42.670Z,8.60
2019-02-06T13:31:13.265Z,8.40
2019-02-06T13:33:44.128Z,11.50
2019-02-06T13:36:15.442Z,17.43
2019-02-06T13:38:46.123Z,10.83
2019-02-06T13:41:17.046Z,7.17
2019-02-06T13:43:48.014Z,13.87
2019-02-06T13:46:19.225Z,9.13
2019-02-06T13:48:50.689Z,12.77
2019-02-06T13:51:24.588Z,14.87
2019-02-06T13:53:56.718Z,10.70
2019-02-06T13:56:27.910Z,11.73
2019-02-06T13:58:59.409Z,8.97
2019-02-06T14:01:29.865Z,14.03
2019-02-06T14:04:00.823Z,11.17
2019-02-06T14:06:32.675Z,9.03
2019-02-06T14:09:22.187Z,9.63
2019-02-06T14:11:46.844Z,11.67
2019-02-06T14:14:17.461Z,11.73
2019-02-06T14:16:48.187Z,13.03
2019-02-06T14:19:18.979Z,7.77
2019-02-06T14:21:52.364Z,13.40
2019-02-06T14:24:52.639Z,8.53
2019-02-06T14:28:07.597Z,10.10
2019-02-06T14:31:29.395Z,14.33
2019-02-06T14:34:34.005Z,12.63
2019-02-06T14:37:36.880Z,12.33
2019-02-06T14:40:30.967Z,13.57
2019-02-06T14:43:39.374Z,10.77
2019-02-06T14:46:26.803Z,13.43
2019-02-06T14:49:21.893Z,10.97
2019-02-06T14:52:32.903Z,12.43
2019-02-06T14:55:13.520Z,11.63
2019-02-06T14:58:23.339Z,12.50
2019-02-06T15:01:20.736Z,10.17
2019-02-06T15:04:26.393Z,12.37
2019-02-06T15:07:37.018Z,10.30
2019-02-06T15:10:38.090Z,11.87
2019-02-06T15:13:32.458Z,10.53
2019-02-06T15:16:45.945Z,11.53
2019-02-06T15:19:50.653Z,11.20
2019-02-06T15:22:57.879Z,7.00
2019-02-06T15:25:53.624Z,10.97
2019-02-06T15:28:57.175Z,14.17
2019-02-06T15:32:07.287Z,13.20
2019-02-06T15:34:57.240Z,9.20
2019-02-06T15:38:04.110Z,13.57
2019-02-06T15:41:05.175Z,12.33
2019-02-06T15:44:28.390Z,14.53
2019-02-06T15:47:14.132Z,10.90
2019-02-06T15:50:26.895Z,10.63
2019-02-06T15:53:35.713Z,9.67
2019-02-06T15:56:40.104Z,12.40
2019-02-06T15:59:58.306Z,10.37
2019-02-06T16:02:57.270Z,7.73
2019-02-06T16:06:13.530Z,9.80
2019-02-06T16:09:21.749Z,8.00
2019-02-06T16:12:23.533Z,11.07
2019-02-06T16:15:18.395Z,11.53
2019-02-06T16:18:20.046Z,15.77
2019-02-06T16:21:21.315Z,9.13
2019-02-06T16:24:10.379Z,9.83
2019-02-06T16:27:12.656Z,11.10
2019-02-06T16:30:13.491Z,7.97
2019-02-06T16:33:08.313Z,9.77
2019-02-06T16:36:34.281Z,8.57
2019-02-06T16:39:29.924Z,12.40
2019-02-06T16:42:35.079Z,7.13
2019-02-06T16:45:28.874Z,11.30
2019-02-06T16:48:39.974Z,9.67
2019-02-06T16:51:22.528Z,15.53
2019-02-06T16:54:49.425Z,9.57
2019-02-06T16:57:44.814Z,9.57
2019-02-06T17:00:44.345Z,11.33
2019-02-06T17:04:06.709Z,16.23
2019-02-06T17:07:08.924Z,10.57
2019-02-06T17:10:16.586Z,9.97
2019-02-06T17:13:14.049Z,13.10
2019-02-06T17:16:12.634Z,9.03
2019-02-06T17:18:55.059Z,10.67
2019-02-06T17:21:42.464Z,16.03
2019-02-06T17:24:38.190Z,9.90
2019-02-06T17:27:37.491Z,13.63
2019-02-06T17:30:35.545Z,12.97
2019-02-06T17:33:50.023Z,14.57
2019-02-06T17:36:53.610Z,26.00
2019-02-06T17:40:04.300Z,10.83
2019-02-06T17:43:12.975Z,14.83
2019-02-06T17:46:36.832Z,13.53
2019-02-06T17:50:08.024Z,16.53
2019-02-06T17:53:16.769Z,15.73
2019-02-06T17:55:47.539Z,15.47
2019-02-06T17:58:18.189Z,13.50
2019-02-06T18:01:10.446Z,14.07
2019-02-06T18:03:51.629Z,14.80
2019-02-06T18:06:22.352Z,17.47
2019-02-06T18:08:56.945Z,15.27
2019-02-06T18:11:26.155Z,20.20
2019-02-06T18:13:57.347Z,16.03
2019-02-06T18:16:33.074Z,22.43
2019-02-06T18:19:04.054Z,16.03
2019-02-06T18:21:34.781Z,20.30
2019-02-06T18:24:06.361Z,23.83
2019-02-06T18:26:44.764Z,19.57
2019-02-06T18:29:16.426Z,17.27
2019-02-06T18:31:47.534Z,18.47
2019-02-06T18:34:18.593Z,21.90
2019-02-06T18:36:52.375Z,22.27
2019-02-06T18:39:23.486Z,19.60
2019-02-06T18:41:54.946Z,21.73
2019-02-06T18:44:25.843Z,18.17
2019-02-06T18:46:59.325Z,21.17
2019-02-06T18:49:32.007Z,18.47
2019-02-06T18:52:03.016Z,19.60
2019-02-06T18:54:48.140Z,20.80
2019-02-06T18:57:20.170Z,22.83
2019-02-06T18:59:51.224Z,17.83
2019-02-06T19:02:21.675Z,20.53
2019-02-06T19:05:08.510Z,24.53
2019-02-06T19:07:42.694Z,24.30
2019-02-06T19:10:14.924Z,23.43
2019-02-06T19:12:48.163Z,22.00
2019-02-06T19:15:18.832Z,20.27
2019-02-06T19:17:51.971Z,23.10
2019-02-06T19:20:23.481Z,22.27
2019-02-06T19:22:54.102Z,24.70
2019-02-06T19:25:24.805Z,25.20
2019-02-06T19:27:56.304Z,21.80
2019-02-06T19:30:30.020Z,19.73
2019-02-06T19:33:00.768Z,19.43
2019-02-06T19:35:31.462Z,22.37
2019-02-06T19:38:02.426Z,23.50
2019-02-06T19:40:33.274Z,17.63
2019-02-06T19:43:04.277Z,18.63
2019-02-06T19:45:35.220Z,21.37
2019-02-06T19:48:21.727Z,20.63
2019-02-06T19:50:40.742Z,22.90
2019-02-06T19:53:19.379Z,29.03
2019-02-06T19:55:50.273Z,22.47
2019-02-06T19:58:21.661Z,21.43
2019-02-06T20:00:53.275Z,20.07
2019-02-06T20:03:24.268Z,21.73
2019-02-06T20:05:55.201Z,22.77
2019-02-06T20:08:25.951Z,21.63
2019-02-06T20:10:59.346Z,27.10
2019-02-06T20:13:30.203Z,22.50
2019-02-06T20:16:06.946Z,23.77
2019-02-06T20:18:44.549Z,27.00
2019-02-06T20:21:43.246Z,25.67
2019-02-06T20:24:05.517Z,26.57
2019-02-06T20:26:42.876Z,27.93
2019-02-06T20:29:19.091Z,26.87
2019-02-06T20:31:55.520Z,25.90
2019-02-06T20:34:34.031Z,28.23
2019-02-06T20:37:11.687Z,30.60
2019-02-06T20:39:48.711Z,31.03
2019-02-06T20:42:25.147Z,27.37
2019-02-06T20:45:02.988Z,28.17
2019-02-06T20:47:39.738Z,28.53
2019-02-06T20:50:19.427Z,25.23
2019-02-06T20:52:54.903Z,29.60
2019-02-06T20:55:35.373Z,27.17
2019-02-06T20:58:16.806Z,26.60
2019-02-06T21:00:53.170Z,23.50
2019-02-06T21:03:29.051Z,25.20
2019-02-06T21:06:08.160Z,28.47
2019-02-06T21:08:48.251Z,29.70
2019-02-06T21:11:30.595Z,28.40
2019-02-06T21:14:06.181Z,32.10
2019-02-06T21:16:42.105Z,30.37
2019-02-06T21:19:19.485Z,32.73
2019-02-06T21:21:56.527Z,34.80
2019-02-06T21:24:32.734Z,31.90
2019-02-06T21:27:20.942Z,27.53
2019-02-06T21:30:07.751Z,45.33
2019-02-06T21:32:51.039Z,32.97
2019-02-06T21:35:40.981Z,28.97
2019-02-06T21:38:17.698Z,27.93
2019-02-06T21:40:55.269Z,34.03
2019-02-06T21:43:31.218Z,26.40
2019-02-06T21:46:07.648Z,29.40
2019-02-06T21:48:44.164Z,34.67
2019-02-06T21:51:20.937Z,30.23
2019-02-06T21:53:57.186Z,30.37
2019-02-06T21:56:33.671Z,30.20
2019-02-06T21:59:11.782Z,30.00
2019-02-06T22:01:52.868Z,29.83
2019-02-06T22:04:29.799Z,28.00
2019-02-06T22:07:06.997Z,30.23
2019-02-06T22:09:43.818Z,32.53
2019-02-06T22:12:20.366Z,25.07
2019-02-06T22:14:56.058Z,33.03
2019-02-06T22:17:48.308Z,32.60
2019-02-06T22:20:25.681Z,30.93
2019-02-06T22:23:04.208Z,27.57
2019-02-06T22:25:41.291Z,28.17
2019-02-06T22:28:16.958Z,30.37
2019-02-06T22:30:54.073Z,28.57
2019-02-06T22:33:30.208Z,29.63
2019-02-06T22:36:06.903Z,29.93
2019-02-06T22:38:43.603Z,31.10
2019-02-06T22:41:21.307Z,33.00
2019-02-06T22:44:06.338Z,31.67
2019-02-06T22:46:36.283Z,29.20
2019-02-06T22:49:12.152Z,29.17
2019-02-06T22:51:50.520Z,27.63
2019-02-06T22:54:27.389Z,30.87
2019-02-06T22:57:04.572Z,28.60
2019-02-06T22:59:41.817Z,28.63
2019-02-06T23:02:17.971Z,34.63
2019-02-06T23:04:54.977Z,27.17
2019-02-06T23:07:31.520Z,27.67
2019-02-06T23:10:09.204Z,27.07
2019-02-06T23:12:45.447Z,30.17
2019-02-06T23:15:21.853Z,31.43
2019-02-06T23:17:59.656Z,26.87
2019-02-06T23:20:36.097Z,29.50
2019-02-06T23:23:13.218Z,27.47
2019-02-06T23:25:50.420Z,30.73
2019-02-06T23:28:21.536Z,32.93
2019-02-06T23:30:52.002Z,32.37
2019-02-06T23:33:22.612Z,29.87
2019-02-06T23:35:53.152Z,31.27
2019-02-06T23:38:23.602Z,27.67
2019-02-06T23:40:54.298Z,32.27
2019-02-06T23:43:24.739Z,33.53
2019-02-06T23:45:55.123Z,32.13
2019-02-06T23:48:25.920Z,33.70
2019-02-06T23:50:56.328Z,33.80
2019-02-06T23:53:27.261Z,36.20
2019-02-06T23:55:57.587Z,34.80
2019-02-06T23:58:28.059Z,33.10
